createdAt,value
2023-02-18T00:00:15.817Z,23.02
2023-02-18T00:05:18.785Z,16.25
2023-02-18T00:10:21.582Z,17.38
2023-02-18T00:15:24.405Z,20.10
2023-02-18T00:20:27.325Z,14.05
2023-02-18T00:25:30.400Z,16.67
2023-02-18T00:30:33.093Z,16.23
2023-02-18T00:35:36.001Z,14.52
2023-02-18T00:40:39.614Z,17.95
2023-02-18T00:45:42.307Z,18.42
2023-02-18T00:50:45.452Z,17.20
2023-02-18T01:00:53.499Z,14.00
2023-02-18T01:05:56.266Z,21.88
2023-02-18T01:10:59.589Z,20.15
2023-02-18T01:16:02.315Z,12.88
2023-02-18T01:21:08.936Z,22.75
2023-02-18T01:26:12.855Z,18.30
2023-02-18T01:31:17.580Z,20.85
2023-02-18T01:36:20.891Z,24.10
2023-02-18T01:41:23.751Z,19.85
2023-02-18T01:46:26.452Z,17.77
2023-02-18T01:51:32.443Z,12.88
2023-02-18T01:57:00.930Z,16.60
2023-02-18T02:02:04.004Z,18.40
2023-02-18T02:07:06.929Z,21.85
2023-02-18T02:12:15.791Z,20.52
2023-02-18T02:17:35.461Z,26.95
2023-02-18T02:23:15.440Z,19.38
2023-02-18T02:28:51.562Z,12.15
2023-02-18T02:34:00.345Z,25.65
2023-02-18T02:39:27.240Z,22.73
2023-02-18T02:44:40.184Z,25.55
2023-02-18T02:54:45.526Z,21.60
2023-02-18T02:59:53.163Z,28.60
2023-02-18T03:05:29.929Z,24.17
2023-02-18T03:10:48.969Z,22.50
2023-02-18T03:16:05.145Z,15.20
2023-02-18T03:21:26.464Z,26.83
2023-02-18T03:26:31.198Z,17.25
2023-02-18T03:31:35.465Z,15.85
2023-02-18T03:36:38.923Z,20.13
2023-02-18T03:41:43.056Z,20.90
2023-02-18T03:46:46.296Z,27.58
2023-02-18T03:51:49.382Z,18.33
2023-02-18T03:56:52.149Z,24.48
2023-02-18T04:01:54.864Z,19.00
2023-02-18T04:06:57.664Z,17.83
2023-02-18T04:12:00.407Z,20.23
2023-02-18T04:17:03.106Z,21.90
2023-02-18T04:22:05.822Z,25.60
2023-02-18T04:27:08.747Z,18.63
2023-02-18T04:32:11.640Z,24.67
2023-02-18T04:37:14.381Z,26.40
2023-02-18T04:42:17.079Z,24.70
2023-02-18T04:47:19.784Z,23.87
2023-02-18T04:52:22.494Z,17.57
2023-02-18T04:57:25.175Z,19.20
2023-02-18T05:02:27.811Z,18.73
2023-02-18T05:07:30.486Z,24.30
2023-02-18T05:12:33.245Z,16.77
2023-02-18T05:17:36.185Z,18.07
2023-02-18T05:22:39.481Z,21.97
2023-02-18T05:27:42.149Z,26.27
2023-02-18T05:32:44.862Z,17.80
2023-02-18T05:37:47.539Z,24.03
2023-02-18T05:42:50.304Z,22.58
2023-02-18T05:47:52.986Z,20.88
2023-02-18T05:52:55.739Z,21.30
2023-02-18T05:57:58.490Z,26.00
2023-02-18T06:03:01.304Z,23.33
2023-02-18T06:08:04.111Z,29.00
2023-02-18T06:13:11.581Z,25.38
2023-02-18T06:18:14.646Z,20.90
2023-02-18T06:23:18.786Z,17.37
2023-02-18T06:28:21.676Z,20.85
2023-02-18T06:33:24.659Z,22.33
2023-02-18T06:38:27.700Z,25.30
2023-02-18T06:43:30.540Z,11.63
2023-02-18T06:48:36.084Z,17.70
2023-02-18T06:53:38.767Z,20.63
2023-02-18T06:58:42.933Z,21.58
2023-02-18T07:08:48.192Z,17.83
2023-02-18T07:13:53.709Z,19.45
2023-02-18T07:18:56.480Z,17.30
2023-02-18T07:23:59.279Z,15.10
2023-02-18T07:29:01.956Z,13.98
2023-02-18T07:34:04.714Z,12.57
2023-02-18T07:39:07.458Z,15.38
2023-02-18T07:44:10.199Z,16.25
2023-02-18T07:49:15.633Z,24.00
2023-02-18T07:54:21.034Z,22.75
2023-02-18T07:59:23.984Z,24.30
2023-02-18T08:04:26.701Z,19.60
2023-02-18T08:09:29.522Z,21.35
2023-02-18T08:14:32.258Z,23.98
2023-02-18T08:19:35.040Z,22.35
2023-02-18T08:24:40.472Z,15.77
2023-02-18T08:29:43.165Z,18.55
2023-02-18T08:34:45.880Z,19.48
2023-02-18T08:39:48.640Z,21.80
2023-02-18T08:44:51.277Z,20.38
2023-02-18T08:49:54.693Z,18.48
2023-02-18T08:54:57.435Z,17.60
2023-02-18T09:00:00.171Z,17.90
2023-02-18T09:05:02.932Z,20.73
2023-02-18T09:10:10.469Z,15.20
2023-02-18T09:15:16.097Z,17.40
2023-02-18T09:20:20.227Z,20.92
2023-02-18T09:25:22.973Z,16.92
2023-02-18T09:30:25.955Z,15.57
2023-02-18T09:35:30.984Z,20.55
2023-02-18T09:40:39.048Z,16.00
2023-02-18T09:45:43.237Z,17.50
2023-02-18T09:50:53.086Z,15.55
2023-02-18T09:55:57.599Z,17.20
2023-02-18T10:01:14.468Z,15.15
2023-02-18T10:06:22.716Z,18.35
2023-02-18T10:11:32.555Z,16.08
2023-02-18T10:16:37.016Z,22.05
2023-02-18T10:26:42.918Z,28.95
2023-02-18T10:32:09.551Z,20.90
2023-02-18T10:37:24.336Z,27.02
2023-02-18T10:42:40.680Z,31.75
2023-02-18T10:47:55.657Z,34.95
2023-02-18T10:53:03.337Z,38.03
2023-02-18T10:58:24.631Z,41.08
2023-02-18T11:03:48.563Z,43.17
2023-02-18T11:14:00.401Z,46.42
2023-02-18T11:19:04.784Z,47.38
2023-02-18T11:24:10.535Z,43.60
2023-02-18T11:29:21.771Z,47.78
2023-02-18T11:34:28.963Z,45.17
2023-02-18T11:39:32.744Z,43.17
2023-02-18T11:44:59.642Z,38.20
2023-02-18T11:50:11.569Z,36.45
2023-02-18T11:55:20.866Z,37.30
2023-02-18T12:00:45.834Z,40.95
2023-02-18T12:05:49.475Z,42.92
2023-02-18T12:10:55.210Z,106.72
2023-02-18T12:16:23.914Z,137.75
2023-02-18T12:21:29.646Z,126.28
2023-02-18T12:26:55.110Z,120.82
2023-02-18T12:32:10.868Z,110.40
2023-02-18T12:37:51.603Z,107.13
2023-02-18T12:43:07.940Z,95.65
2023-02-18T12:48:32.842Z,79.55
2023-02-18T12:53:41.435Z,69.03
2023-02-18T12:58:51.147Z,58.75
2023-02-18T13:04:12.656Z,87.88
2023-02-18T13:09:40.166Z,100.18
2023-02-18T13:14:56.290Z,89.45
2023-02-18T13:20:07.913Z,94.45
2023-02-18T13:25:13.872Z,99.32
2023-02-18T13:30:28.018Z,97.25
2023-02-18T13:40:56.753Z,96.22
2023-02-18T13:46:10.152Z,122.68
2023-02-18T13:51:18.192Z,138.07
2023-02-18T13:56:22.379Z,162.98
2023-02-18T14:01:42.303Z,179.35
2023-02-18T14:07:25.232Z,174.00
2023-02-18T14:12:57.441Z,177.70
2023-02-18T14:18:15.259Z,156.10
2023-02-18T14:23:21.537Z,175.48
2023-02-18T14:28:39.354Z,161.75
2023-02-18T14:34:08.509Z,138.82
2023-02-18T14:39:29.784Z,131.82
2023-02-18T14:45:00.272Z,122.32
2023-02-18T14:50:04.920Z,119.93
2023-02-18T14:55:17.428Z,82.97
2023-02-18T15:00:32.820Z,64.18
2023-02-18T15:05:38.643Z,66.43
2023-02-18T15:10:58.557Z,69.72
2023-02-18T15:16:04.403Z,62.67
2023-02-18T15:21:20.345Z,62.10
2023-02-18T15:26:23.116Z,65.28
2023-02-18T15:31:31.760Z,49.53
2023-02-18T15:36:50.815Z,43.90
2023-02-18T15:42:00.060Z,42.72
2023-02-18T15:47:10.772Z,51.60
2023-02-18T15:52:16.298Z,37.13
2023-02-18T15:57:19.754Z,37.75
2023-02-18T16:02:25.108Z,36.30
2023-02-18T16:07:30.515Z,40.92
2023-02-18T16:12:34.060Z,37.72
2023-02-18T16:17:37.240Z,40.80
2023-02-18T16:22:51.062Z,44.65
2023-02-18T16:28:24.375Z,37.80
2023-02-18T16:33:29.440Z,31.48
2023-02-18T16:38:32.274Z,24.02
2023-02-18T16:43:35.068Z,23.70
2023-02-18T16:48:41.001Z,25.60
2023-02-18T16:53:44.524Z,25.77
2023-02-18T16:58:47.259Z,28.70
2023-02-18T17:03:50.100Z,21.38
2023-02-18T17:08:53.305Z,27.50
2023-02-18T17:13:58.721Z,31.20
2023-02-18T17:19:01.576Z,29.50
2023-02-18T17:24:04.880Z,28.48
2023-02-18T17:29:07.711Z,25.17
2023-02-18T17:34:15.344Z,29.50
2023-02-18T17:39:18.625Z,26.58
2023-02-18T17:44:24.082Z,29.33
2023-02-18T17:49:26.773Z,25.15
2023-02-18T17:54:29.552Z,28.77
2023-02-18T17:59:32.480Z,29.35
2023-02-18T18:04:35.177Z,22.55
2023-02-18T18:09:38.043Z,26.75
2023-02-18T18:14:41.584Z,27.87
2023-02-18T18:19:44.203Z,25.27
2023-02-18T18:24:47.052Z,32.10
2023-02-18T18:29:49.896Z,28.05
2023-02-18T18:34:52.732Z,32.95
2023-02-18T18:39:55.473Z,31.92
2023-02-18T18:45:00.850Z,30.70
2023-02-18T18:50:03.555Z,32.70
2023-02-18T18:55:19.208Z,27.35
2023-02-18T19:00:34.330Z,28.27
2023-02-18T19:05:39.421Z,32.53
2023-02-18T19:10:44.125Z,38.30
2023-02-18T19:15:47.398Z,37.50
2023-02-18T19:20:50.186Z,35.80
2023-02-18T19:25:52.902Z,33.60
2023-02-18T19:30:55.962Z,32.50
2023-02-18T19:35:58.705Z,35.92
2023-02-18T19:41:15.054Z,33.78
2023-02-18T19:46:19.029Z,34.22
2023-02-18T19:51:21.951Z,41.70
2023-02-18T19:56:25.416Z,59.72
2023-02-18T20:01:28.205Z,64.80
2023-02-18T20:06:31.028Z,67.22
2023-02-18T20:11:33.699Z,67.25
2023-02-18T20:16:36.580Z,70.47
2023-02-18T20:21:39.557Z,73.25
2023-02-18T20:26:42.207Z,69.05
2023-02-18T20:31:45.084Z,74.15
2023-02-18T20:36:50.137Z,86.40
2023-02-18T20:41:52.876Z,75.15
2023-02-18T20:46:55.623Z,73.07
2023-02-18T20:51:58.354Z,72.68
2023-02-18T20:57:02.211Z,80.78
2023-02-18T21:02:05.186Z,73.47
2023-02-18T21:07:07.900Z,73.35
2023-02-18T21:12:11.379Z,87.90
2023-02-18T21:17:14.216Z,86.73
2023-02-18T21:22:16.975Z,79.28
2023-02-18T21:27:19.718Z,84.68
2023-02-18T21:32:22.599Z,78.25
2023-02-18T21:37:25.384Z,83.70
2023-02-18T21:42:28.118Z,74.22
2023-02-18T21:47:30.847Z,75.72
2023-02-18T21:52:34.475Z,79.38
2023-02-18T21:57:37.519Z,71.70
2023-02-18T22:02:40.201Z,67.35
2023-02-18T22:07:42.838Z,67.13
2023-02-18T22:12:45.790Z,65.72
2023-02-18T22:17:48.439Z,65.40
2023-02-18T22:22:51.158Z,73.28
2023-02-18T22:27:53.870Z,59.60
2023-02-18T22:32:56.555Z,66.80
2023-02-18T22:37:59.382Z,63.20
2023-02-18T22:43:02.077Z,56.00
2023-02-18T22:48:05.166Z,59.90
2023-02-18T22:53:07.881Z,49.38
2023-02-18T22:58:10.576Z,54.50
2023-02-18T23:03:13.274Z,52.13
2023-02-18T23:08:16.399Z,55.00
2023-02-18T23:13:19.123Z,49.58
2023-02-18T23:18:21.897Z,47.08
2023-02-18T23:23:24.557Z,49.15
2023-02-18T23:28:27.919Z,45.80
2023-02-18T23:33:30.681Z,43.25
2023-02-18T23:38:33.368Z,46.03
2023-02-18T23:43:36.013Z,46.63
2023-02-18T23:48:38.740Z,48.88
2023-02-18T23:53:42.063Z,42.88
2023-02-18T23:58:46.800Z,39.58
